メインページ
METAR-TAF:

METAR-TAF

空港 :

Port Hardy, ブリティッシュコロンビア州, カナダ

緯度: 50-41N, 経度: 127-22W, 海抜: 22m

現時点の気象観測

当レポートは48分前の02:00(UTC)に作成
無風
気温 8°C
湿度 87%
気圧 1023 hPa
視程: 19.3km
高度1000ftの雲はほとんどない
高度2200ftの雲は散在している
高度4000ftの曇り
小雨

METAR: CYZT 200200Z 00000KT 12SM -RA FEW010 SCT022 OVC040 08/06 A3022 RMK SF1SC2SC5 SLP234

時間: 19:48 (02:48 UTC)

予報

当レポートは2時間10分前の00:38(UTC)に作成
予報は20日の 01時(UTC)から 20日の 13時(UTC)まで有効
の風 6kt
視程: 10km
高度1200ftの雲はほとんどない
高度4000ftの曇り
小雨
20日の 01時(UTC)から 20日の 13時(UTC)まで一時的に
視程: 8.0km
高度1200ftの千切れ雲あり
高度2500ftの曇り
弱いにわか雨, 靄

TAF: CYZT 200038Z 2001/2013 18006KT P6SM -RA FEW012 OVC040 TEMPO 2001/2013 5SM -SHRA BR BKN012 OVC025 RMK NXT FCST BY 200700Z

4,000以上の空港の気象観測と天気予報(METAR報とTAF報)

利用可能な観測所は地図上に黄色い丸と赤い丸で示す。

丸の上にカーソルを重ねると観測所名を参照できる。

次にクリックすると気象観測と天気予報を参照できる。

マップの切り替え:黒色「×」印の緑ボタンをクリックして拡大、「-」印の緑ボタンをクリックして縮小、緑色の三角印をクリックして隣りの地図に切り替え


METAR-TAF: